createdAt,value
2023-03-27T00:04:25.008Z,97.85
2023-03-27T00:09:29.148Z,96.47
2023-03-27T00:14:32.693Z,91.29
2023-03-27T00:19:35.593Z,93.12
2023-03-27T00:24:37.234Z,89.05
2023-03-27T00:29:40.342Z,91.15
2023-03-27T00:34:41.969Z,90.68
2023-03-27T00:39:43.680Z,85.82
2023-03-27T00:44:46.723Z,85.45
2023-03-27T00:49:50.604Z,92.59
2023-03-27T00:54:52.290Z,92.37
2023-03-27T00:59:57.360Z,93.04
2023-03-27T01:04:59.106Z,90.88
2023-03-27T01:10:00.908Z,98.02
2023-03-27T01:15:28.205Z,90.35
2023-03-27T01:21:03.985Z,85.05
2023-03-27T01:26:46.225Z,87.00
2023-03-27T01:32:07.119Z,82.22
2023-03-27T01:37:33.338Z,83.54
2023-03-27T01:42:39.266Z,82.63
2023-03-27T01:47:46.394Z,83.83
2023-03-27T01:52:53.393Z,87.92
2023-03-27T01:58:00.238Z,85.05
2023-03-27T02:03:08.595Z,86.01
2023-03-27T02:08:15.596Z,86.16
2023-03-27T02:13:25.590Z,87.74
2023-03-27T02:18:32.444Z,84.95
2023-03-27T02:23:34.088Z,88.99
2023-03-27T02:28:48.596Z,86.79
2023-03-27T02:34:08.933Z,89.14
2023-03-27T02:39:17.336Z,84.22
2023-03-27T02:44:32.163Z,87.19
2023-03-27T02:49:39.927Z,84.53
2023-03-27T02:54:47.361Z,84.97
2023-03-27T02:59:54.377Z,86.02
2023-03-27T03:05:01.562Z,86.74
2023-03-27T03:10:03.767Z,87.16
2023-03-27T03:15:08.442Z,86.94
2023-03-27T03:20:11.048Z,85.89
2023-03-27T03:25:12.948Z,85.49
2023-03-27T03:30:16.794Z,85.33
2023-03-27T03:35:19.329Z,88.11
2023-03-27T03:40:21.266Z,86.22
2023-03-27T03:45:24.374Z,85.90
2023-03-27T03:50:26.157Z,89.75
2023-03-27T03:55:27.829Z,87.17
2023-03-27T04:00:31.561Z,88.84
2023-03-27T04:05:33.288Z,90.56
2023-03-27T04:10:36.520Z,87.66
2023-03-27T04:15:39.608Z,91.17
2023-03-27T04:20:41.316Z,90.31
2023-03-27T04:25:43.044Z,90.48
2023-03-27T04:30:46.229Z,91.46
2023-03-27T04:36:06.935Z,93.45
2023-03-27T04:41:09.251Z,92.12
2023-03-27T04:46:12.326Z,93.26
2023-03-27T04:51:13.968Z,92.29
2023-03-27T04:56:15.646Z,92.24
2023-03-27T05:01:30.612Z,93.16
2023-03-27T05:06:32.217Z,94.07
2023-03-27T05:11:34.044Z,90.99
2023-03-27T05:16:37.140Z,91.42
2023-03-27T05:21:39.243Z,91.40
2023-03-27T05:26:41.418Z,92.26
2023-03-27T05:31:44.579Z,91.41
2023-03-27T05:36:46.469Z,93.15
2023-03-27T05:41:48.105Z,90.51
2023-03-27T05:46:51.240Z,91.55
2023-03-27T05:51:52.899Z,91.40
2023-03-27T05:56:54.675Z,90.47
2023-03-27T06:01:57.806Z,90.53
2023-03-27T06:06:59.430Z,89.57
2023-03-27T06:12:01.047Z,89.38
2023-03-27T06:17:04.046Z,87.83
2023-03-27T06:22:05.715Z,87.90
2023-03-27T06:27:09.151Z,87.82
2023-03-27T06:32:14.370Z,88.77
2023-03-27T06:37:15.989Z,83.97
2023-03-27T06:42:17.968Z,83.89
2023-03-27T06:47:21.062Z,87.09
2023-03-27T06:52:22.943Z,82.72
2023-03-27T06:57:24.616Z,80.28
2023-03-27T07:02:27.751Z,81.82
2023-03-27T07:07:29.449Z,73.47
2023-03-27T07:12:31.137Z,66.43
2023-03-27T07:17:45.894Z,61.30
2023-03-27T07:22:50.338Z,66.16
2023-03-27T07:28:38.582Z,61.89
2023-03-27T07:33:42.696Z,63.07
2023-03-27T07:38:46.383Z,65.63
2023-03-27T07:43:54.368Z,66.63
2023-03-27T07:48:57.825Z,67.91
2023-03-27T07:53:59.518Z,68.60
2023-03-27T07:59:01.416Z,69.73
2023-03-27T08:04:04.861Z,66.12
2023-03-27T08:09:06.817Z,66.10
2023-03-27T08:14:08.568Z,65.86
2023-03-27T08:19:36.854Z,65.49
2023-03-27T08:25:07.231Z,68.61
2023-03-27T08:32:02.500Z,65.51
2023-03-27T08:35:56.292Z,64.92
2023-03-27T08:41:06.907Z,63.45
2023-03-27T08:46:16.681Z,67.00
2023-03-27T08:51:25.326Z,66.60
2023-03-27T08:56:27.675Z,65.81
2023-03-27T09:01:36.842Z,69.55
2023-03-27T09:07:26.181Z,70.88
2023-03-27T09:13:00.116Z,74.89
2023-03-27T09:18:06.619Z,83.49
2023-03-27T09:23:15.759Z,87.52
2023-03-27T09:28:21.209Z,83.24
2023-03-27T09:33:23.692Z,84.70
2023-03-27T09:38:35.658Z,81.45
2023-03-27T09:44:05.199Z,79.99
2023-03-27T09:49:36.881Z,75.35
2023-03-27T09:54:53.306Z,72.85
2023-03-27T09:59:59.814Z,71.45
2023-03-27T10:05:04.130Z,72.30
2023-03-27T10:10:21.712Z,73.84
2023-03-27T10:15:34.598Z,71.31
2023-03-27T10:20:37.774Z,67.76
2023-03-27T10:25:49.873Z,66.53
2023-03-27T10:30:58.737Z,64.59
2023-03-27T10:36:33.001Z,68.51
2023-03-27T10:42:17.233Z,67.57
2023-03-27T10:47:25.958Z,62.73
2023-03-27T10:52:35.816Z,67.05
2023-03-27T10:57:41.617Z,64.08
2023-03-27T11:02:49.469Z,65.41
2023-03-27T11:08:02.042Z,66.71
2023-03-27T11:13:13.550Z,64.06
2023-03-27T11:18:22.141Z,66.91
2023-03-27T11:23:30.384Z,69.10
2023-03-27T11:28:46.718Z,89.80
2023-03-27T11:34:09.945Z,88.40
2023-03-27T11:39:28.822Z,94.22
2023-03-27T11:44:33.151Z,89.31
2023-03-27T11:49:52.953Z,80.58
2023-03-27T11:55:10.572Z,79.34
2023-03-27T12:00:26.538Z,81.45
2023-03-27T12:05:33.893Z,82.54
2023-03-27T12:10:38.148Z,80.63
2023-03-27T12:15:54.711Z,77.16
2023-03-27T12:21:09.728Z,71.20
2023-03-27T12:26:34.930Z,72.78
2023-03-27T12:31:53.084Z,71.57
2023-03-27T12:36:55.967Z,66.40
2023-03-27T12:41:57.696Z,66.43
2023-03-27T12:47:20.550Z,68.89
2023-03-27T12:52:22.400Z,59.94
2023-03-27T12:57:24.291Z,57.45
2023-03-27T13:03:05.981Z,56.49
2023-03-27T13:08:28.828Z,56.27
2023-03-27T13:15:00.601Z,55.20
2023-03-27T13:25:31.849Z,53.02
2023-03-27T13:30:46.522Z,53.55
2023-03-27T13:36:02.849Z,54.25
2023-03-27T13:41:43.839Z,52.15
2023-03-27T13:46:51.377Z,55.30
2023-03-27T13:52:21.846Z,54.16
2023-03-27T13:57:38.712Z,55.07
2023-03-27T14:03:24.521Z,54.50
2023-03-27T14:08:38.293Z,55.13
2023-03-27T14:14:02.946Z,53.38
2023-03-27T14:19:40.212Z,53.61
2023-03-27T14:24:46.290Z,58.80
2023-03-27T14:29:48.089Z,64.72
2023-03-27T14:39:55.836Z,71.11
2023-03-27T14:45:16.397Z,70.05
2023-03-27T14:50:19.694Z,74.16
2023-03-27T14:55:24.061Z,74.53
2023-03-27T15:00:27.580Z,73.33
2023-03-27T15:05:30.579Z,73.06
2023-03-27T15:10:32.614Z,72.58
2023-03-27T15:15:38.302Z,73.74
2023-03-27T15:20:41.664Z,74.84
2023-03-27T15:25:47.109Z,72.24
2023-03-27T15:30:53.329Z,70.47
2023-03-27T15:35:57.180Z,70.50
2023-03-27T15:41:02.001Z,68.49
2023-03-27T15:46:14.938Z,86.17
2023-03-27T15:51:30.164Z,94.94
2023-03-27T15:56:39.760Z,100.00
2023-03-27T16:01:48.520Z,100.00
2023-03-27T16:06:54.418Z,100.00
2023-03-27T16:11:57.931Z,100.00
2023-03-27T16:17:15.390Z,100.00
2023-03-27T16:22:23.014Z,100.00
2023-03-27T16:27:28.275Z,100.00
2023-03-27T16:32:30.047Z,100.00
2023-03-27T16:37:33.236Z,100.00
2023-03-27T16:42:34.934Z,100.00
2023-03-27T16:47:36.747Z,100.00
2023-03-27T16:52:39.837Z,100.00
2023-03-27T16:57:42.309Z,100.00
2023-03-27T17:02:44.270Z,100.00
2023-03-27T17:07:47.554Z,100.00
2023-03-27T17:12:49.293Z,100.00
2023-03-27T17:17:50.967Z,100.00
2023-03-27T17:22:54.092Z,100.00
2023-03-27T17:27:55.732Z,100.00
2023-03-27T17:32:57.412Z,100.00
2023-03-27T17:38:00.677Z,100.00
2023-03-27T17:43:02.357Z,100.00
2023-03-27T17:48:04.015Z,100.00
2023-03-27T17:53:07.053Z,100.00
2023-03-27T17:58:09.733Z,100.00
2023-03-27T18:03:11.959Z,100.00
2023-03-27T18:08:16.584Z,93.65
2023-03-27T18:13:19.023Z,95.01
2023-03-27T18:18:20.935Z,97.78
2023-03-27T18:23:24.092Z,96.86
2023-03-27T18:28:25.722Z,100.00
2023-03-27T18:33:27.601Z,100.00
2023-03-27T18:38:30.720Z,100.00
2023-03-27T18:43:32.469Z,100.00
2023-03-27T18:48:34.593Z,100.00
2023-03-27T18:53:37.626Z,100.00
2023-03-27T18:58:39.261Z,100.00
2023-03-27T19:03:40.901Z,100.00
2023-03-27T19:08:44.181Z,100.00
2023-03-27T19:13:45.796Z,100.00
2023-03-27T19:18:47.399Z,100.00
2023-03-27T19:23:50.592Z,100.00
2023-03-27T19:28:52.256Z,100.00
2023-03-27T19:33:53.896Z,100.00
2023-03-27T19:38:57.292Z,100.00
2023-03-27T19:44:00.359Z,100.00
2023-03-27T19:49:03.054Z,100.00
2023-03-27T19:54:06.278Z,100.00
2023-03-27T19:59:09.821Z,100.00
2023-03-27T20:04:14.789Z,100.00
2023-03-27T20:09:18.081Z,100.00
2023-03-27T20:14:20.382Z,100.00
2023-03-27T20:19:23.685Z,100.00
2023-03-27T20:24:27.128Z,100.00
2023-03-27T20:29:29.177Z,100.00
2023-03-27T20:34:31.221Z,100.00
2023-03-27T20:39:34.687Z,100.00
2023-03-27T20:44:36.714Z,100.00
2023-03-27T20:49:41.561Z,100.00
2023-03-27T20:54:45.180Z,100.00
2023-03-27T20:59:47.711Z,100.00
2023-03-27T21:04:49.711Z,100.00
2023-03-27T21:09:52.777Z,100.00
2023-03-27T21:14:54.486Z,100.00
2023-03-27T21:19:56.166Z,100.00
2023-03-27T21:24:59.249Z,100.00
2023-03-27T21:30:00.876Z,100.00
2023-03-27T21:35:02.527Z,100.00
2023-03-27T21:40:07.117Z,100.00
2023-03-27T21:45:09.099Z,100.00
2023-03-27T21:50:11.212Z,100.00
2023-03-27T21:55:14.214Z,100.00
2023-03-27T22:00:16.329Z,100.00
2023-03-27T22:05:18.268Z,100.00
2023-03-27T22:10:21.262Z,100.00
2023-03-27T22:15:22.940Z,100.00
2023-03-27T22:20:24.579Z,100.00
2023-03-27T22:25:27.727Z,100.00
2023-03-27T22:30:29.489Z,100.00
2023-03-27T22:35:31.234Z,100.00
2023-03-27T22:40:34.219Z,100.00
2023-03-27T22:45:36.121Z,100.00
2023-03-27T22:50:37.767Z,100.00
2023-03-27T22:55:40.873Z,100.00
2023-03-27T23:00:42.617Z,100.00
2023-03-27T23:05:46.449Z,100.00
2023-03-27T23:10:56.322Z,100.00
2023-03-27T23:15:58.509Z,100.00
2023-03-27T23:21:02.271Z,100.00
2023-03-27T23:26:07.326Z,100.00
2023-03-27T23:31:12.598Z,100.00
2023-03-27T23:36:16.344Z,100.00
2023-03-27T23:41:20.058Z,100.00
2023-03-27T23:46:21.721Z,100.00
2023-03-27T23:51:23.478Z,100.00
2023-03-27T23:56:26.544Z,100.00
